Time;durP1;ratioP1;P1;durP2;ratioP2;P2;SDS_P1;SDS_P2;PMS_P1;PMS_P2;Temp;Humidity;BMP_temperature;BMP_pressure;BME280_temperature;BME280_humidity;BME280_pressure;Samples;Min_cycle;Max_cycle;Signal;HPM_P1;HPM_P2
2024/02/17 00:00:25;;;;;;;15.87;4.90;;;9.20;99.90;;;;;;5018733;28;20217;-62
2024/02/17 00:02:54;;;;;;;15.93;5.20;;;9.20;99.90;;;;;;5017790;28;20225;-62
2024/02/17 00:05:23;;;;;;;18.43;4.83;;;9.10;99.90;;;;;;5018345;28;20232;-62
2024/02/17 00:07:52;;;;;;;17.20;4.93;;;9.10;99.90;;;;;;5020007;28;20221;-62
2024/02/17 00:10:22;;;;;;;16.30;4.83;;;9.00;99.90;;;;;;5017643;28;20249;-62
2024/02/17 00:12:50;;;;;;;15.33;4.90;;;8.90;99.90;;;;;;5017373;28;20674;-62
2024/02/17 00:15:18;;;;;;;14.07;4.83;;;8.90;99.90;;;;;;5017541;28;20304;-61
2024/02/17 00:17:47;;;;;;;13.47;4.40;;;8.90;99.90;;;;;;5017533;28;20319;-61
2024/02/17 00:20:17;;;;;;;12.40;5.07;;;8.90;99.90;;;;;;5020292;28;20198;-60
2024/02/17 00:22:45;;;;;;;10.00;4.33;;;8.90;99.90;;;;;;5015960;28;20208;-62
2024/02/17 00:25:13;;;;;;;12.33;4.40;;;8.90;99.90;;;;;;5015646;28;20224;-61
2024/02/17 00:27:43;;;;;;;13.30;4.80;;;9.00;99.90;;;;;;5018966;28;20228;-62
2024/02/17 00:30:15;;;;;;;14.03;4.93;;;8.90;99.90;;;;;;5015667;28;20221;-61
2024/02/17 00:32:44;;;;;;;13.47;4.00;;;8.90;99.90;;;;;;5020593;28;20229;-61
2024/02/17 00:35:12;;;;;;;13.83;4.50;;;8.90;99.90;;;;;;5020562;28;20201;-61
2024/02/17 00:37:40;;;;;;;14.00;4.70;;;8.90;99.90;;;;;;4993819;28;20225;-62
2024/02/17 00:40:10;;;;;;;13.63;4.80;;;8.90;99.90;;;;;;5000232;28;20237;-61
2024/02/17 00:42:38;;;;;;;12.43;4.07;;;8.90;99.90;;;;;;4994448;28;20230;-62
2024/02/17 00:45:09;;;;;;;12.50;4.40;;;8.90;99.90;;;;;;5000859;28;20237;-61
2024/02/17 00:47:37;;;;;;;14.70;4.50;;;8.90;99.90;;;;;;5004040;28;20246;-61
2024/02/17 00:50:07;;;;;;;16.43;5.13;;;8.90;99.90;;;;;;4996630;28;20545;-62
2024/02/17 00:52:35;;;;;;;6.53;4.20;;;8.80;99.90;;;;;;5000523;28;20237;-62
2024/02/17 00:55:04;;;;;;;10.97;4.43;;;8.80;99.90;;;;;;5000524;28;20217;-62
2024/02/17 00:57:32;;;;;;;14.37;4.10;;;8.80;99.90;;;;;;5001288;28;20230;-61
2024/02/17 01:00:00;;;;;;;13.10;4.80;;;8.80;99.90;;;;;;4996771;28;20257;-62
2024/02/17 01:02:32;;;;;;;17.90;4.57;;;8.70;99.90;;;;;;4995501;28;20202;-62
2024/02/17 01:05:00;;;;;;;8.17;4.80;;;8.70;99.90;;;;;;5000382;28;20245;-62
2024/02/17 01:07:30;;;;;;;15.27;4.80;;;8.70;99.90;;;;;;5000755;28;20563;-61
2024/02/17 01:09:58;;;;;;;12.77;5.30;;;8.70;99.90;;;;;;5000429;28;20229;-61
2024/02/17 01:12:26;;;;;;;13.00;4.87;;;8.70;99.90;;;;;;4998053;28;20222;-61
2024/02/17 01:14:55;;;;;;;16.10;4.77;;;8.60;99.90;;;;;;4996929;28;20226;-62
2024/02/17 01:17:23;;;;;;;13.27;4.70;;;8.60;99.90;;;;;;4998714;28;20224;-62
2024/02/17 01:19:53;;;;;;;19.43;4.97;;;8.60;99.90;;;;;;4993885;28;20222;-61
2024/02/17 01:22:21;;;;;;;11.93;4.57;;;8.60;99.90;;;;;;4991486;28;20221;-62
2024/02/17 01:24:49;;;;;;;16.13;5.07;;;8.50;99.90;;;;;;4994435;28;20221;-61
2024/02/17 01:27:20;;;;;;;14.80;4.63;;;8.50;99.90;;;;;;4993299;28;20688;-62
2024/02/17 01:29:48;;;;;;;12.60;5.00;;;8.50;99.90;;;;;;4998100;28;20260;-62
2024/02/17 01:32:16;;;;;;;12.60;4.83;;;8.60;99.90;;;;;;4994210;28;20201;-61
2024/02/17 01:34:44;;;;;;;21.30;5.60;;;8.50;99.90;;;;;;5001760;28;20328;-62
2024/02/17 01:37:14;;;;;;;15.10;4.57;;;8.50;99.90;;;;;;4995982;28;20242;-61
2024/02/17 01:39:42;;;;;;;17.23;5.43;;;8.40;99.90;;;;;;4996014;28;20220;-61
2024/02/17 01:42:11;;;;;;;12.30;4.80;;;8.50;99.90;;;;;;4998590;28;20219;-61
2024/02/17 01:44:39;;;;;;;20.03;5.30;;;8.40;99.90;;;;;;5005188;28;20305;-61
2024/02/17 01:47:09;;;;;;;17.83;4.63;;;8.40;99.90;;;;;;4998050;28;20206;-62
2024/02/17 01:49:37;;;;;;;12.20;4.20;;;8.30;99.90;;;;;;4998463;28;20314;-61
2024/02/17 01:52:07;;;;;;;12.77;4.77;;;8.30;99.90;;;;;;4996892;28;20262;-62
2024/02/17 01:54:37;;;;;;;8.87;4.50;;;8.30;99.90;;;;;;5006152;28;20312;-61
2024/02/17 01:57:06;;;;;;;18.97;5.17;;;8.20;99.90;;;;;;4996156;28;20261;-61
2024/02/17 01:59:35;;;;;;;16.33;5.07;;;8.20;99.90;;;;;;4997197;28;20758;-61
2024/02/17 02:02:05;;;;;;;10.53;4.57;;;8.20;99.90;;;;;;5001628;28;20664;-62
2024/02/17 02:04:33;;;;;;;15.47;5.43;;;8.20;99.90;;;;;;4994465;28;20219;-62
2024/02/17 02:07:03;;;;;;;13.10;4.67;;;8.20;99.90;;;;;;5006893;28;20221;-61
2024/02/17 02:09:31;;;;;;;15.33;4.30;;;8.10;99.90;;;;;;5000781;28;20581;-62
2024/02/17 02:12:01;;;;;;;15.87;4.90;;;8.10;99.90;;;;;;4999842;28;20231;-62
2024/02/17 02:14:31;;;;;;;13.57;5.00;;;8.00;99.90;;;;;;5000332;28;20186;-61
2024/02/17 02:16:59;;;;;;;14.77;5.10;;;7.90;99.90;;;;;;5031307;28;20274;-61
2024/02/17 02:19:28;;;;;;;17.63;4.60;;;7.90;99.90;;;;;;4997803;28;20222;-61
2024/02/17 02:21:56;;;;;;;15.17;4.83;;;7.90;99.90;;;;;;4995004;28;20226;-61
2024/02/17 02:24:26;;;;;;;13.17;4.13;;;7.90;99.90;;;;;;4999478;28;20673;-62
2024/02/17 02:26:56;;;;;;;8.47;3.90;;;7.90;99.90;;;;;;4999784;28;20248;-61
2024/02/17 02:29:24;;;;;;;12.73;3.87;;;7.80;99.90;;;;;;4998490;28;21421;-61
2024/02/17 02:31:54;;;;;;;19.60;4.07;;;7.90;99.90;;;;;;5003281;28;20195;-61
2024/02/17 02:34:22;;;;;;;12.17;4.23;;;7.90;99.90;;;;;;4998759;28;20231;-61
2024/02/17 02:36:51;;;;;;;11.73;3.93;;;7.90;99.90;;;;;;4988530;28;20941;-61
2024/02/17 02:39:19;;;;;;;14.57;4.20;;;7.80;99.90;;;;;;5021956;28;20238;-62
2024/02/17 02:41:50;;;;;;;23.03;3.90;;;7.90;99.90;;;;;;5000161;28;20230;-62
2024/02/17 02:44:19;;;;;;;15.30;3.87;;;7.90;99.90;;;;;;4992965;28;20187;-61
2024/02/17 02:46:48;;;;;;;13.17;3.80;;;7.80;99.90;;;;;;4995699;28;21451;-62
2024/02/17 02:49:16;;;;;;;17.73;4.30;;;7.80;99.90;;;;;;4997631;28;20589;-61
2024/02/17 02:51:44;;;;;;;12.47;3.40;;;7.80;99.90;;;;;;4992826;28;20719;-61
2024/02/17 02:54:17;;;;;;;8.93;4.27;;;7.90;99.90;;;;;;4997603;28;20310;-61
2024/02/17 02:56:45;;;;;;;11.77;4.10;;;7.90;99.90;;;;;;4996925;28;20238;-62
2024/02/17 02:59:13;;;;;;;15.80;4.17;;;7.90;99.90;;;;;;4998703;28;20194;-61
2024/02/17 03:01:43;;;;;;;13.93;3.70;;;7.90;99.90;;;;;;5019577;28;20233;-61
2024/02/17 03:04:11;;;;;;;14.07;3.53;;;7.90;99.90;;;;;;5020081;28;20223;-61
2024/02/17 03:06:40;;;;;;;13.83;3.57;;;7.90;99.90;;;;;;5017178;28;20698;-61
2024/02/17 03:09:08;;;;;;;12.13;3.57;;;8.00;99.90;;;;;;5015416;28;20307;-62
2024/02/17 03:11:41;;;;;;;17.63;4.50;;;8.10;99.90;;;;;;5016241;28;20746;-62
2024/02/17 03:14:10;;;;;;;12.67;3.63;;;8.10;99.90;;;;;;5004211;28;20198;-61
2024/02/17 03:16:39;;;;;;;12.70;3.90;;;8.10;99.90;;;;;;5020148;28;20243;-61
2024/02/17 03:19:09;;;;;;;14.33;4.23;;;8.10;99.90;;;;;;5014417;28;20325;-61
2024/02/17 03:21:40;;;;;;;16.40;3.93;;;8.10;99.90;;;;;;5017141;28;20300;-61
2024/02/17 03:24:10;;;;;;;9.73;3.80;;;8.20;99.90;;;;;;5014614;28;20230;-61
2024/02/17 03:26:38;;;;;;;10.63;3.90;;;8.20;99.90;;;;;;5019491;28;20226;-61
2024/02/17 03:29:06;;;;;;;11.60;3.50;;;8.20;99.90;;;;;;5019786;28;20186;-61
2024/02/17 03:31:35;;;;;;;14.30;3.40;;;8.30;99.90;;;;;;5017617;28;20217;-61
2024/02/17 03:34:05;;;;;;;14.50;3.80;;;8.30;99.90;;;;;;5017236;28;20218;-62
2024/02/17 03:36:35;;;;;;;9.87;3.30;;;8.30;99.90;;;;;;5002816;28;20721;-61
2024/02/17 03:39:06;;;;;;;18.27;3.77;;;8.40;99.90;;;;;;4994907;28;20301;-61
2024/02/17 03:41:34;;;;;;;13.70;3.37;;;8.40;99.90;;;;;;4999143;28;20213;-61
2024/02/17 03:44:03;;;;;;;8.80;3.07;;;8.50;99.90;;;;;;4994901;28;20285;-61
2024/02/17 03:46:32;;;;;;;9.67;3.37;;;8.50;99.90;;;;;;4997253;28;20241;-62
2024/02/17 03:49:00;;;;;;;12.53;3.20;;;8.50;99.90;;;;;;4995160;28;20225;-61
2024/02/17 03:51:29;;;;;;;11.70;3.13;;;8.60;99.90;;;;;;4992693;28;20708;-61
2024/02/17 03:53:58;;;;;;;17.13;4.40;;;8.60;99.90;;;;;;5000160;28;20221;-61
2024/02/17 03:56:27;;;;;;;13.10;3.77;;;8.60;99.90;;;;;;4998347;28;20205;-61
2024/02/17 03:58:55;;;;;;;12.03;3.30;;;8.60;99.90;;;;;;4998322;28;20217;-61
2024/02/17 04:01:26;;;;;;;8.67;2.90;;;8.60;99.90;;;;;;5003585;28;20216;-62
2024/02/17 04:03:54;;;;;;;8.57;3.70;;;8.60;99.90;;;;;;4997513;28;20233;-62
2024/02/17 04:06:23;;;;;;;11.20;3.47;;;8.70;99.90;;;;;;4996829;28;20593;-62
2024/02/17 04:08:51;;;;;;;7.87;3.50;;;8.70;99.90;;;;;;4996185;28;20233;-61
2024/02/17 04:11:21;;;;;;;13.83;3.47;;;8.70;99.90;;;;;;4999630;28;20209;-62
2024/02/17 04:13:49;;;;;;;13.57;3.73;;;8.80;99.90;;;;;;4993739;28;20190;-61
2024/02/17 04:16:19;;;;;;;10.10;3.50;;;8.80;99.90;;;;;;4992159;28;20218;-61
2024/02/17 04:18:48;;;;;;;8.60;3.23;;;8.90;99.90;;;;;;4998875;28;20222;-61
2024/02/17 04:21:17;;;;;;;14.87;3.20;;;8.90;99.90;;;;;;5000125;28;20236;-61
2024/02/17 04:23:45;;;;;;;14.40;3.70;;;8.90;99.90;;;;;;4997735;28;20232;-61
2024/02/17 04:26:14;;;;;;;6.83;3.20;;;8.90;99.90;;;;;;4997713;28;20226;-61
2024/02/17 04:28:45;;;;;;;7.27;3.30;;;8.90;99.90;;;;;;5000254;28;20219;-61
2024/02/17 04:31:14;;;;;;;7.03;3.37;;;9.00;99.90;;;;;;4991881;28;20284;-61
2024/02/17 04:33:43;;;;;;;6.40;3.33;;;9.00;99.90;;;;;;4995897;28;20229;-61
2024/02/17 04:36:12;;;;;;;10.13;3.50;;;9.00;99.90;;;;;;4998666;28;20237;-61
2024/02/17 04:38:40;;;;;;;8.40;3.50;;;9.00;99.90;;;;;;5000147;28;20272;-61
2024/02/17 04:41:08;;;;;;;10.27;3.07;;;9.00;99.90;;;;;;4998124;28;20218;-61
2024/02/17 04:43:37;;;;;;;7.93;3.20;;;9.00;99.90;;;;;;4994790;28;20242;-62
2024/02/17 04:46:06;;;;;;;11.07;3.23;;;9.00;99.90;;;;;;4994963;28;20554;-62
2024/02/17 04:48:35;;;;;;;9.80;3.10;;;9.00;99.90;;;;;;4996662;28;20236;-61
2024/02/17 04:51:03;;;;;;;9.90;3.33;;;9.00;99.90;;;;;;4999306;28;20324;-62
2024/02/17 04:53:31;;;;;;;13.17;3.50;;;9.00;99.90;;;;;;5000008;28;20218;-62
2024/02/17 04:56:00;;;;;;;11.57;3.20;;;9.00;99.90;;;;;;4996859;28;20191;-62
2024/02/17 04:58:28;;;;;;;13.03;4.13;;;9.00;99.90;;;;;;4994949;28;20221;-61
2024/02/17 05:00:56;;;;;;;10.37;3.27;;;9.00;99.90;;;;;;4993110;28;20260;-62
2024/02/17 05:03:27;;;;;;;11.73;3.10;;;9.00;99.90;;;;;;4993615;28;20313;-62
2024/02/17 05:05:55;;;;;;;12.07;3.43;;;9.00;99.90;;;;;;4998385;28;20242;-62
2024/02/17 05:08:23;;;;;;;9.67;3.43;;;9.00;99.90;;;;;;4999257;28;20696;-61
2024/02/17 05:10:52;;;;;;;11.97;3.10;;;9.00;99.90;;;;;;5000339;28;20197;-61
2024/02/17 05:13:20;;;;;;;8.23;3.40;;;8.90;99.90;;;;;;5014970;28;20272;-61
2024/02/17 05:15:49;;;;;;;19.33;4.33;;;8.90;99.90;;;;;;5001069;28;20669;-62
2024/02/17 05:18:17;;;;;;;10.07;3.47;;;8.90;99.90;;;;;;4997275;28;20326;-61
2024/02/17 05:20:47;;;;;;;13.60;4.17;;;8.80;99.90;;;;;;5000845;28;20234;-61
2024/02/17 05:23:16;;;;;;;7.70;3.07;;;8.80;99.90;;;;;;4999835;28;20204;-61
2024/02/17 05:25:45;;;;;;;13.30;3.53;;;8.80;99.90;;;;;;5006144;28;20190;-61
2024/02/17 05:28:14;;;;;;;11.83;3.50;;;8.70;99.90;;;;;;5006969;28;20799;-62
2024/02/17 05:30:42;;;;;;;14.77;3.47;;;8.80;99.90;;;;;;5008310;28;20696;-61
2024/02/17 05:33:14;;;;;;;9.83;4.03;;;8.70;99.90;;;;;;5020448;28;20217;-62
2024/02/17 05:35:45;;;;;;;8.97;3.40;;;8.70;99.90;;;;;;5020327;28;20633;-62
2024/02/17 05:38:14;;;;;;;8.57;3.50;;;8.70;99.90;;;;;;5020519;28;20656;-61
2024/02/17 05:40:43;;;;;;;13.73;3.33;;;8.70;99.90;;;;;;5018460;28;20217;-61
2024/02/17 05:43:11;;;;;;;10.83;3.67;;;8.70;99.90;;;;;;5019141;28;20260;-61
2024/02/17 05:45:39;;;;;;;11.57;4.23;;;8.70;99.90;;;;;;5017523;28;20274;-61
2024/02/17 05:48:08;;;;;;;9.57;3.43;;;8.60;99.90;;;;;;5015250;28;20218;-62
2024/02/17 05:50:36;;;;;;;11.00;3.70;;;8.60;99.90;;;;;;5018132;28;20344;-61
2024/02/17 05:53:05;;;;;;;8.87;3.90;;;8.60;99.90;;;;;;5020331;28;20240;-61
2024/02/17 05:55:35;;;;;;;6.33;3.37;;;8.60;99.90;;;;;;5020429;28;20731;-62
2024/02/17 05:58:04;;;;;;;7.33;3.67;;;8.60;99.90;;;;;;5018517;28;20222;-61
2024/02/17 06:00:32;;;;;;;8.23;3.23;;;8.60;99.90;;;;;;5020552;28;20228;-61
2024/02/17 06:03:01;;;;;;;15.93;3.77;;;8.60;99.90;;;;;;5020151;28;20708;-61
2024/02/17 06:05:31;;;;;;;8.37;3.63;;;8.60;99.90;;;;;;5026792;28;20260;-61
2024/02/17 06:07:59;;;;;;;11.10;3.67;;;8.50;99.90;;;;;;5014620;28;20190;-62
2024/02/17 06:10:28;;;;;;;15.10;4.40;;;8.50;99.90;;;;;;5015829;28;20218;-62
2024/02/17 06:12:57;;;;;;;7.77;3.97;;;8.50;99.90;;;;;;5016325;28;20264;-61
2024/02/17 06:15:25;;;;;;;17.80;4.47;;;8.50;99.90;;;;;;5017452;28;20284;-61
2024/02/17 06:23:24;;;;;;;9.53;4.03;;;8.40;99.90;;;;;;5017827;28;20231;-61
2024/02/17 06:25:54;;;;;;;9.73;4.40;;;8.30;99.90;;;;;;5018039;28;20190;-61
2024/02/17 06:28:24;;;;;;;11.77;5.00;;;8.30;99.90;;;;;;5017929;28;20244;-61
2024/02/17 06:30:52;;;;;;;13.03;4.50;;;8.30;99.90;;;;;;5020725;28;20225;-61
2024/02/17 06:33:20;;;;;;;17.57;5.50;;;8.30;99.90;;;;;;5020777;28;20217;-61
2024/02/17 06:35:49;;;;;;;10.23;4.33;;;8.20;99.90;;;;;;5021777;28;20588;-61
2024/02/17 06:38:17;;;;;;;15.60;4.37;;;8.20;99.90;;;;;;5018804;28;20565;-61
2024/02/17 06:40:49;;;;;;;8.50;4.30;;;8.20;99.90;;;;;;5022142;28;20556;-61
2024/02/17 06:43:17;;;;;;;18.43;5.23;;;8.20;99.90;;;;;;5021314;28;20240;-62
2024/02/17 06:45:47;;;;;;;14.73;5.33;;;8.20;99.90;;;;;;5019122;28;20226;-61
2024/02/17 06:48:16;;;;;;;10.50;4.63;;;8.20;99.90;;;;;;5018545;28;20226;-62
2024/02/17 06:50:44;;;;;;;13.10;4.33;;;8.20;99.90;;;;;;5008654;28;20213;-62
2024/02/17 06:53:12;;;;;;;11.63;5.10;;;8.20;99.90;;;;;;5019126;28;20187;-61
2024/02/17 06:55:40;;;;;;;12.00;4.30;;;8.20;99.90;;;;;;5018811;28;20209;-61
2024/02/17 06:58:09;;;;;;;12.33;4.80;;;8.20;99.90;;;;;;5012894;28;20230;-61
2024/02/17 07:00:37;;;;;;;21.13;5.33;;;8.20;99.90;;;;;;5017222;28;20241;-61
2024/02/17 07:03:07;;;;;;;12.10;4.87;;;8.20;99.90;;;;;;5019873;28;20234;-61
2024/02/17 07:05:36;;;;;;;16.43;5.43;;;8.20;99.90;;;;;;5014910;28;20248;-61
2024/02/17 07:08:04;;;;;;;10.40;4.80;;;8.20;99.90;;;;;;4995295;28;20936;-62
2024/02/17 07:10:34;;;;;;;15.67;4.90;;;8.20;99.90;;;;;;4995224;28;20214;-62
2024/02/17 07:13:04;;;;;;;12.13;5.23;;;8.20;99.90;;;;;;5006267;28;20313;-61
2024/02/17 07:15:32;;;;;;;14.03;5.03;;;8.20;99.90;;;;;;5013985;28;20292;-62
2024/02/17 07:18:01;;;;;;;13.60;5.10;;;8.20;99.90;;;;;;5018000;28;20254;-62
2024/02/17 07:20:32;;;;;;;14.10;5.00;;;8.20;99.90;;;;;;5016990;28;20205;-61
2024/02/17 07:23:01;;;;;;;10.17;4.67;;;8.30;99.90;;;;;;5013729;28;20294;-61
2024/02/17 07:25:30;;;;;;;15.77;5.00;;;8.30;99.90;;;;;;5012111;28;20291;-62
2024/02/17 07:27:58;;;;;;;12.80;5.50;;;8.30;99.90;;;;;;5011641;28;20226;-62
2024/02/17 07:30:28;;;;;;;13.40;5.53;;;8.40;99.90;;;;;;5018488;28;20230;-61
2024/02/17 07:32:57;;;;;;;16.27;5.20;;;8.40;99.90;;;;;;5017453;28;20317;-62
2024/02/17 07:35:25;;;;;;;14.50;5.40;;;8.40;99.90;;;;;;5017222;28;20201;-61
2024/02/17 07:37:54;;;;;;;15.63;5.37;;;8.40;99.90;;;;;;5016987;28;20206;-62
2024/02/17 07:40:23;;;;;;;18.13;4.70;;;8.50;99.90;;;;;;5015204;28;20558;-62
2024/02/17 07:42:51;;;;;;;14.37;4.97;;;8.50;99.90;;;;;;4997617;28;20223;-61
2024/02/17 07:45:20;;;;;;;16.70;5.63;;;8.50;99.90;;;;;;4999504;28;20222;-61
2024/02/17 07:47:48;;;;;;;13.13;5.13;;;8.60;99.90;;;;;;4997781;28;20715;-62
2024/02/17 07:50:16;;;;;;;14.60;5.40;;;8.60;99.90;;;;;;5001415;28;20194;-62
2024/02/17 07:52:45;;;;;;;16.70;5.27;;;8.60;99.90;;;;;;4998413;28;20645;-61
2024/02/17 07:55:14;;;;;;;7.73;4.53;;;8.70;99.90;;;;;;4995763;28;20222;-62
2024/02/17 07:57:43;;;;;;;12.27;4.93;;;8.70;99.90;;;;;;4995543;28;20276;-62
2024/02/17 08:00:13;;;;;;;10.20;4.87;;;8.70;99.90;;;;;;5001317;28;20816;-61
2024/02/17 08:02:45;;;;;;;9.20;4.40;;;8.80;99.90;;;;;;4999538;28;20753;-61
2024/02/17 08:05:14;;;;;;;20.30;5.27;;;8.90;99.90;;;;;;4997700;28;20314;-61
2024/02/17 08:07:43;;;;;;;11.93;4.73;;;8.90;99.90;;;;;;4986141;28;20306;-62
2024/02/17 08:10:16;;;;;;;15.50;5.73;;;9.00;99.90;;;;;;5009254;28;20222;-61
2024/02/17 08:12:44;;;;;;;11.10;4.87;;;9.00;99.90;;;;;;5001368;28;20552;-61
2024/02/17 08:15:13;;;;;;;16.00;4.87;;;9.10;99.90;;;;;;5000106;28;20273;-62
2024/02/17 08:17:42;;;;;;;12.10;5.10;;;9.10;99.90;;;;;;4996158;28;20230;-62
2024/02/17 08:20:11;;;;;;;14.73;5.47;;;9.20;99.90;;;;;;5003163;28;20210;-61
2024/02/17 08:22:40;;;;;;;15.27;4.87;;;9.20;99.90;;;;;;4994365;28;20317;-61
2024/02/17 08:25:09;;;;;;;12.93;5.40;;;9.30;99.90;;;;;;4996132;28;20222;-62
2024/02/17 08:27:41;;;;;;;12.77;5.40;;;9.30;99.90;;;;;;4989675;28;20228;-61
2024/02/17 08:30:10;;;;;;;12.53;5.17;;;9.40;99.90;;;;;;4999630;28;20218;-62
2024/02/17 08:32:38;;;;;;;9.57;4.93;;;9.40;99.90;;;;;;4995012;28;20221;-62
2024/02/17 08:35:11;;;;;;;15.03;5.37;;;9.50;99.90;;;;;;4994444;28;20206;-61
2024/02/17 08:37:40;;;;;;;11.70;4.97;;;9.60;99.90;;;;;;4993936;28;20230;-62
2024/02/17 08:40:10;;;;;;;12.33;4.93;;;9.60;99.90;;;;;;4992122;28;20234;-61
2024/02/17 08:42:39;;;;;;;13.50;5.10;;;9.60;99.90;;;;;;4993197;28;20262;-61
2024/02/17 08:45:10;;;;;;;15.17;5.57;;;9.70;99.90;;;;;;4994407;28;20215;-61
2024/02/17 08:47:38;;;;;;;11.40;5.40;;;9.70;99.90;;;;;;4994303;28;20229;-61
2024/02/17 08:50:07;;;;;;;13.40;5.30;;;9.80;99.90;;;;;;4992456;28;20191;-61
2024/02/17 08:52:35;;;;;;;12.37;5.07;;;9.90;99.90;;;;;;4999619;28;20218;-61
2024/02/17 08:55:04;;;;;;;16.53;5.70;;;9.90;99.90;;;;;;4994271;28;20672;-61
2024/02/17 08:57:32;;;;;;;13.60;5.07;;;10.00;99.90;;;;;;5000478;28;20670;-61
2024/02/17 09:00:03;;;;;;;12.20;5.00;;;10.10;99.90;;;;;;4991640;28;20292;-61
2024/02/17 09:02:31;;;;;;;16.40;5.60;;;10.20;99.90;;;;;;4990990;28;20190;-62
2024/02/17 09:05:00;;;;;;;10.37;5.47;;;10.30;99.90;;;;;;4998940;28;20728;-61
2024/02/17 09:07:28;;;;;;;17.60;5.07;;;10.30;99.90;;;;;;4992076;28;20697;-61
2024/02/17 09:09:57;;;;;;;11.77;4.97;;;10.40;99.90;;;;;;4985197;28;20241;-61
2024/02/17 09:12:26;;;;;;;14.03;4.90;;;10.40;99.90;;;;;;4996118;28;20685;-62
2024/02/17 09:14:54;;;;;;;14.13;5.17;;;10.50;99.90;;;;;;4995937;28;20242;-61
2024/02/17 09:17:24;;;;;;;14.33;5.13;;;10.50;99.90;;;;;;4989814;28;20724;-61
2024/02/17 09:19:52;;;;;;;11.77;4.87;;;10.50;99.90;;;;;;4994782;28;20234;-61
2024/02/17 09:22:21;;;;;;;13.07;5.23;;;10.60;99.90;;;;;;4989615;28;20246;-61
2024/02/17 09:24:49;;;;;;;9.30;5.13;;;10.70;99.90;;;;;;4991669;28;20233;-61
2024/02/17 09:27:18;;;;;;;11.13;4.80;;;10.70;99.90;;;;;;4992759;28;20218;-61
2024/02/17 09:29:47;;;;;;;11.10;5.27;;;10.80;99.90;;;;;;4993557;28;20285;-61
2024/02/17 09:32:15;;;;;;;10.27;4.60;;;10.90;99.90;;;;;;4992189;28;20269;-60
2024/02/17 09:34:45;;;;;;;11.80;5.27;;;11.00;99.90;;;;;;4987229;28;20650;-61
2024/02/17 09:37:13;;;;;;;14.13;5.43;;;11.10;99.90;;;;;;5002484;28;20276;-61
2024/02/17 09:39:42;;;;;;;17.13;5.33;;;11.20;99.90;;;;;;4995396;28;20217;-61
2024/02/17 09:42:10;;;;;;;16.43;5.20;;;11.30;99.90;;;;;;4990792;28;20720;-61
2024/02/17 09:44:41;;;;;;;13.30;5.13;;;11.40;99.90;;;;;;4988482;28;20288;-61
2024/02/17 09:47:09;;;;;;;14.47;5.43;;;11.60;99.90;;;;;;4986411;28;20200;-61
2024/02/17 09:49:40;;;;;;;10.40;4.87;;;11.80;99.90;;;;;;4991898;28;20219;-62
2024/02/17 09:52:10;;;;;;;13.80;5.27;;;11.90;99.90;;;;;;4992101;28;20211;-61
2024/02/17 09:54:39;;;;;;;10.70;5.13;;;12.00;99.90;;;;;;5004065;28;20814;-61
2024/02/17 09:57:07;;;;;;;14.70;4.87;;;12.10;99.90;;;;;;5008865;28;20231;-61
2024/02/17 09:59:39;;;;;;;14.60;5.30;;;12.10;99.90;;;;;;5007291;28;20992;-61
2024/02/17 10:02:10;;;;;;;9.63;5.27;;;12.00;99.90;;;;;;5010204;28;20679;-61
2024/02/17 10:04:53;;;;;;;14.80;4.90;;;12.10;99.90;;;;;;5010526;28;20774;-59
2024/02/17 10:07:23;;;;;;;9.80;4.83;;;12.20;99.90;;;;;;5007131;28;20249;-61
2024/02/17 10:09:52;;;;;;;22.53;4.87;;;12.40;99.90;;;;;;4998851;28;20222;-62
2024/02/17 10:12:20;;;;;;;15.40;5.03;;;12.50;99.90;;;;;;4996088;28;21743;-61
2024/02/17 10:14:52;;;;;;;11.37;5.23;;;12.70;99.90;;;;;;4991734;28;20218;-61
2024/02/17 10:17:22;;;;;;;10.77;4.33;;;12.80;99.90;;;;;;4994267;28;20225;-61
2024/02/17 10:19:54;;;;;;;9.60;4.90;;;12.80;99.90;;;;;;4997457;28;20190;-61
2024/02/17 10:22:24;;;;;;;12.20;4.53;;;13.00;99.90;;;;;;4997446;28;20227;-62
2024/02/17 10:25:00;;;;;;;10.83;5.20;;;13.10;99.90;;;;;;4993935;28;20222;-61
2024/02/17 10:27:28;;;;;;;9.80;4.53;;;13.10;99.90;;;;;;4990614;28;20600;-62
2024/02/17 10:30:08;;;;;;;10.87;4.67;;;13.10;99.90;;;;;;4994821;28;20540;-62
2024/02/17 10:32:36;;;;;;;13.90;4.67;;;13.10;99.90;;;;;;4997569;28;20262;-62
2024/02/17 10:35:07;;;;;;;10.27;4.63;;;13.10;99.90;;;;;;4998347;28;20290;-62
2024/02/17 10:37:40;;;;;;;9.60;4.50;;;13.20;99.90;;;;;;4996810;28;20243;-61
2024/02/17 10:40:09;;;;;;;7.73;4.23;;;13.40;99.90;;;;;;4991187;28;20238;-61
2024/02/17 10:42:38;;;;;;;18.73;5.33;;;13.30;99.90;;;;;;4994460;28;20232;-62
2024/02/17 10:45:07;;;;;;;17.37;5.03;;;13.40;99.90;;;;;;4991340;28;20239;-61
2024/02/17 10:47:37;;;;;;;9.70;4.37;;;13.50;99.90;;;;;;5000358;28;20221;-62
2024/02/17 10:50:13;;;;;;;11.23;4.70;;;13.50;99.90;;;;;;4996379;28;20202;-62
2024/02/17 10:52:51;;;;;;;13.53;4.50;;;13.50;99.90;;;;;;5007952;28;20205;-61
2024/02/17 10:55:24;;;;;;;13.50;5.40;;;13.60;99.90;;;;;;5014139;28;20234;-61
2024/02/17 10:58:10;;;;;;;14.00;4.80;;;13.60;99.90;;;;;;5014909;28;20270;-61
2024/02/17 11:00:42;;;;;;;21.33;5.83;;;13.80;99.90;;;;;;5010025;28;20309;-61
2024/02/17 11:03:13;;;;;;;8.87;4.30;;;13.90;99.90;;;;;;5012693;28;20231;-61
2024/02/17 11:05:45;;;;;;;11.30;4.83;;;13.90;99.90;;;;;;5010019;28;20237;-62
2024/02/17 11:08:16;;;;;;;11.20;4.63;;;13.90;99.90;;;;;;5013475;28;20189;-62
2024/02/17 11:10:45;;;;;;;13.67;4.20;;;13.90;99.90;;;;;;5010609;28;20216;-62
2024/02/17 11:13:22;;;;;;;11.97;4.80;;;13.90;99.90;;;;;;5010697;28;20280;-62
2024/02/17 11:16:01;;;;;;;9.77;4.93;;;14.00;99.90;;;;;;5011650;28;20225;-62
2024/02/17 11:18:32;;;;;;;12.60;4.53;;;14.10;99.90;;;;;;5011201;28;20257;-62
2024/02/17 11:21:01;;;;;;;18.40;5.50;;;14.20;99.90;;;;;;5014091;28;20248;-62
2024/02/17 11:23:34;;;;;;;15.60;5.13;;;14.10;99.90;;;;;;5012281;28;20210;-62
2024/02/17 11:26:03;;;;;;;9.87;4.60;;;14.00;99.90;;;;;;5015189;28;20187;-62
2024/02/17 11:28:33;;;;;;;12.97;5.20;;;13.90;99.90;;;;;;5013384;28;20225;-62
2024/02/17 11:31:06;;;;;;;16.37;5.03;;;14.00;99.90;;;;;;5009290;28;20225;-62
2024/02/17 11:33:34;;;;;;;19.63;4.73;;;14.20;99.90;;;;;;5009212;28;20222;-62
2024/02/17 11:36:08;;;;;;;10.17;4.40;;;14.40;99.90;;;;;;5010930;28;20249;-62
2024/02/17 11:38:38;;;;;;;14.00;4.90;;;14.60;99.90;;;;;;5011762;28;20216;-62
2024/02/17 11:41:07;;;;;;;14.17;4.53;;;14.50;99.90;;;;;;5014642;28;20960;-62
2024/02/17 11:43:36;;;;;;;11.97;4.33;;;14.70;99.90;;;;;;5009986;28;20924;-62
2024/02/17 11:46:05;;;;;;;7.33;4.30;;;14.90;99.90;;;;;;5011156;28;20218;-61
2024/02/17 11:48:34;;;;;;;11.53;4.20;;;15.00;99.90;;;;;;5008733;28;20225;-62
2024/02/17 11:51:05;;;;;;;9.93;4.00;;;15.10;56.00;;;;;;5013202;28;20569;-62
2024/02/17 11:53:34;;;;;;;10.40;4.40;;;15.40;1.00;;;;;;5011586;28;20188;-62
2024/02/17 11:56:04;;;;;;;15.87;4.27;;;15.50;1.00;;;;;;5010534;28;20315;-62
2024/02/17 11:58:33;;;;;;;10.37;4.53;;;15.60;1.00;;;;;;5010842;28;20558;-62
2024/02/17 12:01:01;;;;;;;8.87;3.87;;;15.70;1.00;;;;;;5009872;28;21051;-63
2024/02/17 12:03:31;;;;;;;7.57;3.50;;;16.00;1.00;;;;;;5010459;28;20226;-62
2024/02/17 12:06:01;;;;;;;15.20;3.63;;;16.00;1.00;;;;;;5012844;28;20229;-61
2024/02/17 12:08:30;;;;;;;10.27;4.23;;;16.00;1.00;;;;;;5011737;28;20542;-61
2024/02/17 12:10:59;;;;;;;7.23;3.03;;;16.00;1.00;;;;;;5009455;28;20252;-61
2024/02/17 12:13:31;;;;;;;10.00;3.47;;;16.10;1.00;;;;;;5002464;28;20516;-62
2024/02/17 12:16:07;;;;;;;6.07;3.30;;;16.50;94.90;;;;;;5000252;28;20284;-61
2024/02/17 12:18:37;;;;;;;6.80;2.80;;;16.70;99.90;;;;;;5001592;28;20253;-62
2024/02/17 12:21:07;;;;;;;8.77;2.73;;;17.10;99.90;;;;;;5009374;28;20209;-62
2024/02/17 12:23:36;;;;;;;9.50;3.17;;;17.40;99.90;;;;;;5004293;28;20243;-61
2024/02/17 12:26:05;;;;;;;5.77;2.70;;;17.50;99.90;;;;;;5007556;28;20202;-62
2024/02/17 12:28:50;;;;;;;8.53;2.83;;;17.70;99.90;;;;;;5009348;28;20217;-64
2024/02/17 12:31:19;;;;;;;4.37;2.47;;;17.60;99.90;;;;;;5012063;28;20213;-61
2024/02/17 12:33:49;;;;;;;8.20;2.97;;;17.50;99.90;;;;;;5008685;28;20276;-62
2024/02/17 12:36:21;;;;;;;7.87;3.00;;;17.50;99.90;;;;;;5008363;28;20304;-61
2024/02/17 12:38:57;;;;;;;7.70;2.70;;;17.80;99.90;;;;;;5006522;28;20235;-62
2024/02/17 12:41:26;;;;;;;4.97;2.30;;;17.90;99.90;;;;;;5009107;28;20190;-62
2024/02/17 12:43:56;;;;;;;5.70;2.43;;;18.00;99.90;;;;;;5010209;28;20222;-62
2024/02/17 12:46:26;;;;;;;4.67;2.33;;;18.10;99.90;;;;;;5007721;28;20228;-62
2024/02/17 12:48:55;;;;;;;5.10;2.40;;;18.10;99.90;;;;;;5007375;28;20221;-62
2024/02/17 12:51:24;;;;;;;4.93;2.40;;;18.00;99.90;;;;;;5009888;28;20580;-62
2024/02/17 12:53:53;;;;;;;4.93;2.60;;;18.20;99.90;;;;;;5009477;28;20229;-62
2024/02/17 12:56:22;;;;;;;3.87;2.13;;;18.20;99.90;;;;;;5014345;28;20198;-62
2024/02/17 12:58:53;;;;;;;5.40;2.37;;;18.30;99.90;;;;;;5010001;28;20189;-62
2024/02/17 13:01:22;;;;;;;4.47;2.47;;;18.30;99.90;;;;;;5008523;28;20693;-62